createdAt,value
2019-04-25T00:00:14.632Z,97641.81
2019-04-25T00:02:46.999Z,97638.84
2019-04-25T00:05:21.177Z,97641.97
2019-04-25T00:07:54.440Z,97641.13
2019-04-25T00:10:27.707Z,97633.86
2019-04-25T00:13:01.658Z,97640.63
2019-04-25T00:15:36.232Z,97634.48
2019-04-25T00:18:08.576Z,97647.91
2019-04-25T00:20:46.571Z,97644.45
2019-04-25T00:23:19.596Z,97640.09
2019-04-25T00:26:17.153Z,97637.44
2019-04-25T00:28:50.445Z,97640.00
2019-04-25T00:31:25.922Z,97642.48
2019-04-25T00:33:58.101Z,97644.60
2019-04-25T00:36:31.856Z,97646.08
2019-04-25T00:39:06.434Z,97647.20
2019-04-25T00:41:39.734Z,97651.08
2019-04-25T00:44:12.454Z,97651.34
2019-04-25T00:46:48.749Z,97654.30
2019-04-25T00:49:19.922Z,97664.03
2019-04-25T00:51:53.238Z,97656.96
2019-04-25T00:54:26.569Z,97657.19
2019-04-25T00:56:59.465Z,97666.42
2019-04-25T00:59:39.374Z,97659.49
2019-04-25T01:02:21.528Z,97670.93
2019-04-25T01:04:55.582Z,97675.01
2019-04-25T01:07:29.381Z,97677.02
2019-04-25T01:10:02.752Z,97671.71
2019-04-25T01:12:36.240Z,97669.30
2019-04-25T01:15:11.681Z,97666.53
2019-04-25T01:17:45.433Z,97674.61
2019-04-25T01:20:19.444Z,97683.13
2019-04-25T01:22:55.514Z,97677.95
2019-04-25T01:25:38.573Z,97689.39
2019-04-25T01:28:03.225Z,97692.41
2019-04-25T01:30:34.628Z,97697.11
2019-04-25T01:33:08.713Z,97695.45
2019-04-25T01:35:53.623Z,97678.58
2019-04-25T01:38:43.352Z,97692.38
2019-04-25T01:41:34.199Z,97692.16
2019-04-25T01:44:16.164Z,97695.32
2019-04-25T01:46:49.855Z,97693.81
2019-04-25T01:49:23.936Z,97696.31
2019-04-25T01:51:58.342Z,97697.48
2019-04-25T01:54:33.840Z,97694.04
2019-04-25T01:57:09.471Z,97694.81
2019-04-25T01:59:43.892Z,97702.88
2019-04-25T02:02:21.470Z,97694.63
2019-04-25T02:04:57.991Z,97693.64
2019-04-25T02:07:30.456Z,97696.31
2019-04-25T02:10:06.304Z,97700.16
2019-04-25T02:12:46.926Z,97706.64
2019-04-25T02:15:23.415Z,97703.16
2019-04-25T02:17:57.913Z,97706.47
2019-04-25T02:20:33.784Z,97702.75
2019-04-25T02:23:06.984Z,97704.77
2019-04-25T02:25:39.891Z,97718.73
2019-04-25T02:28:13.921Z,97722.59
2019-04-25T02:30:47.657Z,97721.61
2019-04-25T02:33:21.000Z,97724.16
2019-04-25T02:35:57.860Z,97732.81
2019-04-25T02:38:29.198Z,97736.13
2019-04-25T02:41:05.826Z,97727.73
2019-04-25T02:43:37.579Z,97734.47
2019-04-25T02:46:38.947Z,97732.72
2019-04-25T02:49:49.106Z,97736.54
2019-04-25T02:52:34.467Z,97728.58
2019-04-25T02:55:10.953Z,97736.31
2019-04-25T02:57:44.923Z,97744.64
2019-04-25T03:00:45.863Z,97746.05
2019-04-25T03:03:06.883Z,97750.34
2019-04-25T03:05:39.453Z,97745.34
2019-04-25T03:08:14.282Z,97748.34
2019-04-25T03:10:47.314Z,97745.31
2019-04-25T03:13:20.539Z,97750.70
2019-04-25T03:15:53.513Z,97755.02
2019-04-25T03:18:27.790Z,97754.19
2019-04-25T03:21:12.365Z,97762.05
2019-04-25T03:23:45.885Z,97754.23
2019-04-25T03:26:17.523Z,97755.77
2019-04-25T03:28:51.097Z,97756.78
2019-04-25T03:31:26.901Z,97762.74
2019-04-25T03:33:59.114Z,97764.70
2019-04-25T03:36:30.467Z,97760.87
2019-04-25T03:39:04.282Z,97753.89
2019-04-25T03:41:37.463Z,97759.84
2019-04-25T03:44:11.141Z,97758.53
2019-04-25T03:46:44.078Z,97758.80
2019-04-25T03:49:17.237Z,97767.75
2019-04-25T03:51:49.903Z,97764.48
2019-04-25T03:54:23.622Z,97761.91
2019-04-25T03:56:56.931Z,97764.98
2019-04-25T03:59:29.813Z,97759.09
2019-04-25T04:02:05.816Z,97768.37
2019-04-25T04:04:38.687Z,97776.22
2019-04-25T04:07:12.739Z,97776.01
2019-04-25T04:09:46.761Z,97788.72
2019-04-25T04:12:19.713Z,97791.90
2019-04-25T04:14:53.753Z,97795.28
2019-04-25T04:17:38.887Z,97805.91
2019-04-25T04:20:29.994Z,97796.10
2019-04-25T04:23:11.340Z,97801.71
2019-04-25T04:25:45.635Z,97791.81
2019-04-25T04:28:19.462Z,97791.81
2019-04-25T04:30:57.208Z,97791.55
2019-04-25T04:33:33.543Z,97798.80
2019-04-25T04:36:07.341Z,97799.86
2019-04-25T04:38:44.100Z,97799.78
2019-04-25T04:41:17.845Z,97803.70
2019-04-25T04:43:50.889Z,97809.08
2019-04-25T04:46:24.058Z,97811.17
2019-04-25T04:49:05.063Z,97813.81
2019-04-25T04:51:38.673Z,97816.88
2019-04-25T04:54:13.531Z,97813.19
2019-04-25T04:56:47.620Z,97810.85
2019-04-25T04:59:20.862Z,97815.58
2019-04-25T05:02:15.026Z,97819.97
2019-04-25T05:05:03.665Z,97817.62
2019-04-25T05:07:58.339Z,97819.69
2019-04-25T05:10:33.285Z,97819.69
2019-04-25T05:13:06.829Z,97825.45
2019-04-25T05:15:38.413Z,97828.80
2019-04-25T05:18:12.188Z,97825.94
2019-04-25T05:20:46.002Z,97829.81
2019-04-25T05:23:19.752Z,97835.16
2019-04-25T05:25:53.880Z,97841.05
2019-04-25T05:28:28.610Z,97843.92
2019-04-25T05:31:15.727Z,97844.25
2019-04-25T05:33:48.481Z,97847.64
2019-04-25T05:36:23.877Z,97847.17
2019-04-25T05:38:57.936Z,97855.14
2019-04-25T05:41:39.994Z,97848.25
2019-04-25T05:44:14.919Z,97855.48
2019-04-25T05:46:48.340Z,97851.10
2019-04-25T05:49:21.551Z,97847.52
2019-04-25T05:51:53.885Z,97838.40
2019-04-25T05:54:26.921Z,97841.58
2019-04-25T05:56:58.599Z,97844.22
2019-04-25T05:59:31.210Z,97842.05
2019-04-25T06:02:04.460Z,97852.92
2019-04-25T06:04:35.803Z,97846.58
2019-04-25T06:07:08.134Z,97841.77
2019-04-25T06:09:59.917Z,97842.55
2019-04-25T06:12:48.190Z,97843.97
2019-04-25T06:15:25.003Z,97849.72
2019-04-25T06:18:14.421Z,97845.16
2019-04-25T06:20:48.090Z,97842.86
2019-04-25T06:23:45.794Z,97841.95
2019-04-25T06:26:26.706Z,97835.67
2019-04-25T06:28:59.325Z,97828.34
2019-04-25T06:31:29.237Z,97836.31
2019-04-25T06:34:02.400Z,97825.69
2019-04-25T06:36:35.382Z,97826.85
2019-04-25T06:39:10.206Z,97817.19
2019-04-25T06:41:44.180Z,97821.92
2019-04-25T06:44:34.927Z,97825.41
2019-04-25T06:47:26.766Z,97823.80
2019-04-25T06:49:59.973Z,97825.81
2019-04-25T06:52:34.468Z,97828.48
2019-04-25T06:55:08.682Z,97821.67
2019-04-25T06:57:44.088Z,97826.16
2019-04-25T07:00:18.485Z,97819.88
2019-04-25T07:02:53.131Z,97814.59
2019-04-25T07:05:33.962Z,97813.27
2019-04-25T07:08:03.363Z,97804.41
2019-04-25T07:10:37.285Z,97805.70
2019-04-25T07:13:10.688Z,97799.02
2019-04-25T07:15:43.705Z,97801.38
2019-04-25T07:18:16.574Z,97802.09
2019-04-25T07:20:49.796Z,97789.44
2019-04-25T07:23:24.496Z,97791.20
2019-04-25T07:26:19.992Z,97794.94
2019-04-25T07:29:05.349Z,97787.69
2019-04-25T07:31:47.229Z,97788.92
2019-04-25T07:34:23.970Z,97782.75
2019-04-25T07:36:57.962Z,97778.87
2019-04-25T07:39:32.479Z,97777.38
2019-04-25T07:42:06.226Z,97785.35
2019-04-25T07:44:49.769Z,97782.63
2019-04-25T07:47:15.958Z,97778.27
2019-04-25T07:49:50.077Z,97784.11
2019-04-25T07:52:23.715Z,97788.41
2019-04-25T07:54:57.004Z,97777.35
2019-04-25T07:57:28.033Z,97774.02
2019-04-25T08:00:00.596Z,97770.55
2019-04-25T08:02:35.015Z,97773.73
2019-04-25T08:05:11.448Z,97768.14
2019-04-25T08:07:45.339Z,97758.63
2019-04-25T08:10:20.110Z,97752.87
2019-04-25T08:12:53.686Z,97747.63
2019-04-25T08:15:36.751Z,97745.95
2019-04-25T08:18:10.633Z,97750.00
2019-04-25T08:20:43.858Z,97738.27
2019-04-25T08:23:17.105Z,97721.53
2019-04-25T08:25:50.687Z,97722.20
2019-04-25T08:28:24.031Z,97715.77
2019-04-25T08:30:57.466Z,97717.66
2019-04-25T08:33:30.649Z,97707.42
2019-04-25T08:36:08.943Z,97707.89
2019-04-25T08:38:38.192Z,97704.09
2019-04-25T08:41:11.623Z,97695.83
2019-04-25T08:43:45.507Z,97692.37
2019-04-25T08:46:18.569Z,97695.39
2019-04-25T08:49:08.803Z,97693.12
2019-04-25T08:51:42.175Z,97703.27
2019-04-25T08:54:23.644Z,97700.44
2019-04-25T08:56:57.736Z,97694.06
2019-04-25T09:00:01.657Z,97685.25
2019-04-25T09:02:44.699Z,97690.36
2019-04-25T09:05:30.015Z,97688.05
2019-04-25T09:08:04.197Z,97689.91
2019-04-25T09:10:38.502Z,97692.80
2019-04-25T09:13:13.461Z,97691.42
2019-04-25T09:15:46.115Z,97687.60
2019-04-25T09:18:18.466Z,97689.23
2019-04-25T09:20:50.018Z,97683.45
2019-04-25T09:23:23.544Z,97672.97
2019-04-25T09:25:57.084Z,97668.75
2019-04-25T09:28:29.700Z,97667.38
2019-04-25T09:31:00.699Z,97664.67
2019-04-25T09:33:35.173Z,97648.78
2019-04-25T09:36:07.656Z,97652.91
2019-04-25T09:38:40.997Z,97653.97
2019-04-25T09:41:15.331Z,97646.80
2019-04-25T09:43:49.026Z,97645.34
2019-04-25T09:46:29.043Z,97648.78
2019-04-25T09:49:34.986Z,97646.02
2019-04-25T09:52:10.481Z,97637.75
2019-04-25T09:55:07.452Z,97634.77
2019-04-25T09:57:58.503Z,97638.16
2019-04-25T10:00:33.650Z,97628.66
2019-04-25T10:03:06.897Z,97622.66
2019-04-25T10:05:40.341Z,97617.00
2019-04-25T10:08:13.530Z,97620.33
2019-04-25T10:10:46.815Z,97611.06
2019-04-25T10:13:19.396Z,97603.69
2019-04-25T10:16:07.697Z,97604.45
2019-04-25T10:18:41.320Z,97606.27
2019-04-25T10:21:14.460Z,97598.18
2019-04-25T10:23:48.204Z,97596.30
2019-04-25T10:26:24.179Z,97598.23
2019-04-25T10:28:57.416Z,97601.80
2019-04-25T10:31:30.409Z,97591.97
2019-04-25T10:34:03.865Z,97590.76
2019-04-25T10:36:39.812Z,97592.80
2019-04-25T10:39:11.849Z,97590.34
2019-04-25T10:41:46.456Z,97587.88
2019-04-25T10:44:19.027Z,97581.99
2019-04-25T10:46:52.936Z,97570.42
2019-04-25T10:49:25.955Z,97566.55
2019-04-25T10:51:59.215Z,97567.27
2019-04-25T10:54:31.548Z,97560.11
2019-04-25T10:57:06.506Z,97553.03
2019-04-25T10:59:39.032Z,97553.59
2019-04-25T11:02:15.030Z,97571.26
2019-04-25T11:04:52.242Z,97554.52
2019-04-25T11:07:25.239Z,97545.85
2019-04-25T11:09:57.863Z,97550.66
2019-04-25T11:12:31.052Z,97540.16
2019-04-25T11:15:05.088Z,97536.34
2019-04-25T11:17:38.026Z,97532.80
2019-04-25T11:20:24.045Z,97534.16
2019-04-25T11:22:57.229Z,97528.35
2019-04-25T11:25:30.573Z,97524.89
2019-04-25T11:28:04.196Z,97513.91
2019-04-25T11:30:36.806Z,97512.41
2019-04-25T11:33:11.248Z,97511.13
2019-04-25T11:35:46.813Z,97505.41
2019-04-25T11:38:26.454Z,97505.75
2019-04-25T11:41:04.772Z,97501.50
2019-04-25T11:43:37.152Z,97503.97
2019-04-25T11:46:09.529Z,97503.58
2019-04-25T11:48:44.217Z,97503.13
2019-04-25T11:51:18.165Z,97500.70
2019-04-25T11:53:51.574Z,97499.19
2019-04-25T11:56:24.312Z,97497.52
2019-04-25T11:58:57.437Z,97497.91
2019-04-25T12:01:30.461Z,97489.11
2019-04-25T12:04:04.130Z,97498.41
2019-04-25T12:06:37.544Z,97494.70
2019-04-25T12:09:10.914Z,97487.53
2019-04-25T12:11:45.864Z,97492.23
2019-04-25T12:14:17.723Z,97489.28
2019-04-25T12:16:51.651Z,97494.91
2019-04-25T12:19:34.977Z,97487.17
2019-04-25T12:21:59.895Z,97473.57
2019-04-25T12:24:33.639Z,97475.44
2019-04-25T12:27:06.266Z,97476.38
2019-04-25T12:29:39.750Z,97471.22
2019-04-25T12:32:14.120Z,97463.71
2019-04-25T12:34:47.478Z,97465.73
2019-04-25T12:37:20.622Z,97464.17
2019-04-25T12:39:53.865Z,97459.82
2019-04-25T12:42:27.014Z,97456.37
2019-04-25T12:45:18.272Z,97464.59
2019-04-25T12:47:51.320Z,97456.41
2019-04-25T12:50:24.728Z,97451.36
2019-04-25T12:52:58.142Z,97458.50
2019-04-25T12:55:30.807Z,97460.81
2019-04-25T12:58:03.775Z,97454.75
2019-04-25T13:00:47.500Z,97447.38
2019-04-25T13:03:11.207Z,97447.14
2019-04-25T13:05:44.315Z,97445.09
2019-04-25T13:08:16.682Z,97441.95
2019-04-25T13:10:49.346Z,97443.80
2019-04-25T13:13:22.613Z,97449.23
2019-04-25T13:15:56.976Z,97447.23
2019-04-25T13:18:29.414Z,97443.31
2019-04-25T13:21:03.509Z,97438.19
2019-04-25T13:23:36.570Z,97445.15
2019-04-25T13:26:09.954Z,97432.21
2019-04-25T13:29:21.234Z,97432.31
2019-04-25T13:32:21.612Z,97430.84
2019-04-25T13:34:56.388Z,97426.23
2019-04-25T13:37:29.967Z,97429.61
2019-04-25T13:40:02.663Z,97423.57
2019-04-25T13:42:35.865Z,97432.20
2019-04-25T13:45:08.415Z,97415.36
2019-04-25T13:47:41.106Z,97416.84
2019-04-25T13:50:14.653Z,97414.03
2019-04-25T13:52:47.358Z,97417.02
2019-04-25T13:55:21.226Z,97405.91
2019-04-25T13:57:54.853Z,97418.69
2019-04-25T14:00:27.758Z,97403.97
2019-04-25T14:03:00.883Z,97403.27
2019-04-25T14:05:35.193Z,97402.16
2019-04-25T14:08:08.480Z,97402.00
2019-04-25T14:10:41.597Z,97409.78
2019-04-25T14:13:14.571Z,97401.91
2019-04-25T14:15:54.061Z,97395.11
2019-04-25T14:18:54.437Z,97392.59
2019-04-25T14:21:27.440Z,97395.70
2019-04-25T14:24:00.169Z,97390.06
2019-04-25T14:26:32.561Z,97391.71
2019-04-25T14:29:05.811Z,97389.78
2019-04-25T14:31:44.883Z,97378.19
2019-04-25T14:34:13.376Z,97382.52
2019-04-25T14:36:45.857Z,97384.94
2019-04-25T14:39:20.068Z,97378.73
2019-04-25T14:41:52.841Z,97376.75
2019-04-25T14:44:26.176Z,97371.32
2019-04-25T14:47:24.913Z,97369.86
2019-04-25T14:49:57.786Z,97363.95
2019-04-25T14:52:30.614Z,97358.83
2019-04-25T14:55:21.405Z,97353.79
2019-04-25T14:57:54.248Z,97346.41
2019-04-25T15:00:36.301Z,97339.31
2019-04-25T15:03:07.656Z,97347.18
2019-04-25T15:05:53.251Z,97339.39
2019-04-25T15:08:26.803Z,97331.77
2019-04-25T15:10:59.917Z,97327.23
2019-04-25T15:13:33.032Z,97332.27
2019-04-25T15:16:05.788Z,97326.77
2019-04-25T15:18:46.509Z,97324.85
2019-04-25T15:21:13.024Z,97317.94
2019-04-25T15:23:59.352Z,97310.05
2019-04-25T15:26:22.561Z,97302.75
2019-04-25T15:28:55.627Z,97306.27
2019-04-25T15:31:32.029Z,97313.13
2019-04-25T15:34:05.853Z,97299.14
2019-04-25T15:36:51.209Z,97300.75
2019-04-25T15:39:43.597Z,97299.91
2019-04-25T15:42:29.349Z,97291.53
2019-04-25T15:45:31.173Z,97299.42
2019-04-25T15:48:06.231Z,97299.34
2019-04-25T15:50:39.866Z,97286.59
2019-04-25T15:53:13.267Z,97285.88
2019-04-25T15:55:46.585Z,97292.05
2019-04-25T15:58:19.494Z,97282.13
2019-04-25T16:00:53.173Z,97280.45
2019-04-25T16:03:27.154Z,97284.70
2019-04-25T16:06:01.871Z,97281.63
2019-04-25T16:08:35.102Z,97275.29
2019-04-25T16:11:08.840Z,97268.77
2019-04-25T16:13:41.626Z,97268.09
2019-04-25T16:16:14.869Z,97268.23
2019-04-25T16:18:47.549Z,97264.70
2019-04-25T16:21:20.783Z,97260.00
2019-04-25T16:23:54.148Z,97258.43
2019-04-25T16:26:28.084Z,97255.30
2019-04-25T16:29:02.181Z,97258.63
2019-04-25T16:31:35.314Z,97251.17
2019-04-25T16:34:08.896Z,97248.44
2019-04-25T16:36:41.811Z,97252.68
2019-04-25T16:39:19.530Z,97246.00
2019-04-25T16:41:53.048Z,97244.02
2019-04-25T16:44:25.411Z,97235.66
2019-04-25T16:46:58.452Z,97239.17
2019-04-25T16:49:32.576Z,97230.84
2019-04-25T16:52:08.762Z,97233.55
2019-04-25T16:54:41.395Z,97225.20
2019-04-25T16:57:14.052Z,97217.29
2019-04-25T16:59:47.238Z,97217.70
2019-04-25T17:02:32.458Z,97216.86
2019-04-25T17:05:01.210Z,97220.43
2019-04-25T17:07:34.239Z,97219.92
2019-04-25T17:10:07.931Z,97213.52
2019-04-25T17:12:40.996Z,97215.14
2019-04-25T17:15:36.289Z,97215.30
2019-04-25T17:18:16.590Z,97220.52
2019-04-25T17:20:54.613Z,97216.47
2019-04-25T17:23:39.746Z,97211.51
2019-04-25T17:26:13.920Z,97217.80
2019-04-25T17:28:49.189Z,97213.38
2019-04-25T17:31:38.915Z,97214.18
2019-04-25T17:34:22.163Z,97216.65
2019-04-25T17:37:12.638Z,97212.32
2019-04-25T17:39:47.975Z,97218.22
2019-04-25T17:42:21.118Z,97217.69
2019-04-25T17:44:54.112Z,97218.48
2019-04-25T17:47:27.609Z,97220.95
2019-04-25T17:50:01.785Z,97221.45
2019-04-25T17:52:34.194Z,97220.64
2019-04-25T17:55:05.677Z,97220.63
2019-04-25T17:57:38.718Z,97219.79
2019-04-25T18:00:22.482Z,97215.64
2019-04-25T18:02:58.970Z,97214.34
2019-04-25T18:05:31.975Z,97220.98
2019-04-25T18:08:05.502Z,97216.97
2019-04-25T18:10:38.630Z,97210.52
2019-04-25T18:13:11.919Z,97221.63
2019-04-25T18:16:00.579Z,97217.14
2019-04-25T18:18:46.370Z,97224.53
2019-04-25T18:21:19.845Z,97233.19
2019-04-25T18:24:10.372Z,97235.83
2019-04-25T18:26:50.565Z,97250.37
2019-04-25T18:29:24.524Z,97244.22
2019-04-25T18:31:57.246Z,97245.45
2019-04-25T18:34:42.335Z,97247.52
2019-04-25T18:37:23.229Z,97247.34
2019-04-25T18:40:11.224Z,97252.66
2019-04-25T18:43:06.423Z,97256.59
2019-04-25T18:45:42.392Z,97261.47
2019-04-25T18:48:15.650Z,97260.73
2019-04-25T18:50:48.913Z,97267.86
2019-04-25T18:54:01.219Z,97268.60
2019-04-25T18:56:43.520Z,97275.81
2019-04-25T18:59:50.019Z,97273.65
2019-04-25T19:02:54.060Z,97269.01
2019-04-25T19:05:39.677Z,97278.55
2019-04-25T19:08:13.575Z,97288.62
2019-04-25T19:10:47.190Z,97292.38
2019-04-25T19:13:20.617Z,97294.30
2019-04-25T19:15:53.787Z,97294.07
2019-04-25T19:18:27.140Z,97298.74
2019-04-25T19:21:00.292Z,97293.35
2019-04-25T19:23:33.835Z,97294.77
2019-04-25T19:26:06.897Z,97294.42
2019-04-25T19:28:41.025Z,97300.16
2019-04-25T19:31:14.624Z,97297.75
2019-04-25T19:33:47.696Z,97297.15
2019-04-25T19:36:20.715Z,97296.64
2019-04-25T19:38:54.577Z,97301.63
2019-04-25T19:41:43.006Z,97306.28
2019-04-25T19:44:18.728Z,97298.38
2019-04-25T19:46:52.086Z,97302.16
2019-04-25T19:49:25.546Z,97304.78
2019-04-25T19:51:58.888Z,97310.42
2019-04-25T19:54:32.159Z,97311.58
2019-04-25T19:57:05.069Z,97310.50
2019-04-25T19:59:36.610Z,97309.97
2019-04-25T20:02:17.269Z,97313.80
2019-04-25T20:04:55.351Z,97319.06
2019-04-25T20:07:36.910Z,97318.09
2019-04-25T20:10:35.450Z,97315.25
2019-04-25T20:13:08.574Z,97313.69
2019-04-25T20:15:43.175Z,97318.03
2019-04-25T20:18:16.528Z,97317.48
2019-04-25T20:20:50.058Z,97315.63
2019-04-25T20:23:22.507Z,97321.95
2019-04-25T20:25:57.565Z,97322.82
2019-04-25T20:28:31.221Z,97323.95
2019-04-25T20:31:04.184Z,97327.80
2019-04-25T20:33:38.285Z,97329.52
2019-04-25T20:36:17.622Z,97329.80
2019-04-25T20:38:47.462Z,97334.66
2019-04-25T20:41:22.186Z,97334.58
2019-04-25T20:43:57.010Z,97335.20
2019-04-25T20:46:30.461Z,97332.15
2019-04-25T20:49:03.856Z,97341.94
2019-04-25T20:51:37.479Z,97334.91
2019-04-25T20:54:10.139Z,97331.95
2019-04-25T20:56:43.741Z,97334.77
2019-04-25T20:59:17.182Z,97336.92
2019-04-25T21:01:50.189Z,97336.12
2019-04-25T21:04:43.003Z,97337.23
2019-04-25T21:07:16.564Z,97341.95
2019-04-25T21:09:51.209Z,97346.23
2019-04-25T21:12:24.965Z,97347.15
2019-04-25T21:15:08.129Z,97346.89
2019-04-25T21:18:01.555Z,97348.42
2019-04-25T21:20:32.999Z,97355.70
2019-04-25T21:23:06.178Z,97366.20
2019-04-25T21:25:40.261Z,97375.70
2019-04-25T21:28:13.516Z,97381.94
2019-04-25T21:30:44.974Z,97383.72
2019-04-25T21:33:18.202Z,97383.80
2019-04-25T21:35:51.260Z,97389.73
2019-04-25T21:38:25.990Z,97402.02
2019-04-25T21:41:24.369Z,97401.59
2019-04-25T21:44:02.289Z,97405.19
2019-04-25T21:46:36.158Z,97409.30
2019-04-25T21:49:10.137Z,97417.61
2019-04-25T21:51:43.595Z,97432.51
2019-04-25T21:54:15.576Z,97431.84
2019-04-25T21:56:48.335Z,97438.45
2019-04-25T21:59:20.569Z,97440.96
2019-04-25T22:01:53.776Z,97446.70
2019-04-25T22:04:38.223Z,97447.46
2019-04-25T22:09:45.653Z,97437.66
2019-04-25T22:12:19.476Z,97453.20
2019-04-25T22:14:52.511Z,97458.38
2019-04-25T22:17:26.505Z,97464.39
2019-04-25T22:20:00.462Z,97458.00
2019-04-25T22:22:33.980Z,97457.16
2019-04-25T22:25:05.559Z,97474.70
2019-04-25T22:27:38.731Z,97488.10
2019-04-25T22:30:13.623Z,97498.77
2019-04-25T22:33:14.941Z,97504.84
2019-04-25T22:35:51.652Z,97524.02
2019-04-25T22:38:25.576Z,97517.73
2019-04-25T22:41:00.175Z,97515.95
2019-04-25T22:43:36.576Z,97517.89
2019-04-25T22:46:09.397Z,97519.50
2019-04-25T22:48:48.952Z,97521.45
2019-04-25T22:51:22.442Z,97522.74
2019-04-25T22:53:56.839Z,97519.62
2019-04-25T22:56:30.706Z,97525.04
2019-04-25T22:59:04.840Z,97529.54
2019-04-25T23:02:03.533Z,97524.92
2019-04-25T23:05:05.102Z,97523.98
2019-04-25T23:07:31.820Z,97534.75
2019-04-25T23:10:06.257Z,97530.32
2019-04-25T23:12:40.335Z,97532.13
2019-04-25T23:15:14.052Z,97550.25
2019-04-25T23:17:48.242Z,97555.59
2019-04-25T23:20:22.487Z,97557.77
2019-04-25T23:22:56.094Z,97556.38
2019-04-25T23:25:34.921Z,97559.48
2019-04-25T23:28:13.971Z,97565.62
2019-04-25T23:31:18.217Z,97557.59
2019-04-25T23:33:50.296Z,97553.14
2019-04-25T23:36:23.072Z,97557.05
2019-04-25T23:38:54.828Z,97557.70
2019-04-25T23:41:27.436Z,97558.80
2019-04-25T23:44:00.624Z,97561.53
2019-04-25T23:46:34.172Z,97555.63
2019-04-25T23:49:08.804Z,97557.89
2019-04-25T23:51:41.420Z,97565.70
2019-04-25T23:54:15.330Z,97563.05
2019-04-25T23:56:49.014Z,97554.61
2019-04-25T23:59:22.184Z,97539.28
